sensor_id;sensor_type;location;lat;lon;timestamp;temperature;humidity
29341;DHT22;16337;59.536;13.468;2024-01-06T00:00:14;-21.40;99.90
29341;DHT22;16337;59.536;13.468;2024-01-06T00:02:53;-21.50;99.90
29341;DHT22;16337;59.536;13.468;2024-01-06T00:05:24;-21.50;99.90
29341;DHT22;16337;59.536;13.468;2024-01-06T00:07:50;-21.60;99.90
29341;DHT22;16337;59.536;13.468;2024-01-06T00:10:18;-21.50;99.90
29341;DHT22;16337;59.536;13.468;2024-01-06T00:13:02;-21.60;99.90
29341;DHT22;16337;59.536;13.468;2024-01-06T00:15:45;-21.50;99.90
29341;DHT22;16337;59.536;13.468;2024-01-06T00:18:17;-21.60;99.90
29341;DHT22;16337;59.536;13.468;2024-01-06T00:20:42;-21.60;99.90
29341;DHT22;16337;59.536;13.468;2024-01-06T00:23:08;-21.60;99.90
29341;DHT22;16337;59.536;13.468;2024-01-06T00:25:40;-21.60;99.90
29341;DHT22;16337;59.536;13.468;2024-01-06T00:28:10;-21.60;99.90
29341;DHT22;16337;59.536;13.468;2024-01-06T00:30:36;-21.60;99.90
29341;DHT22;16337;59.536;13.468;2024-01-06T00:33:08;-21.50;99.90
29341;DHT22;16337;59.536;13.468;2024-01-06T00:35:43;-21.60;99.90
29341;DHT22;16337;59.536;13.468;2024-01-06T00:38:29;-21.50;99.90
29341;DHT22;16337;59.536;13.468;2024-01-06T00:41:03;-21.50;99.90
29341;DHT22;16337;59.536;13.468;2024-01-06T00:43:29;-21.50;99.90
29341;DHT22;16337;59.536;13.468;2024-01-06T00:45:55;-21.50;99.90
29341;DHT22;16337;59.536;13.468;2024-01-06T00:48:20;-21.50;99.90
29341;DHT22;16337;59.536;13.468;2024-01-06T00:50:46;-21.50;99.90
29341;DHT22;16337;59.536;13.468;2024-01-06T00:53:12;-21.50;99.90
29341;DHT22;16337;59.536;13.468;2024-01-06T00:55:38;-21.50;99.90
29341;DHT22;16337;59.536;13.468;2024-01-06T00:58:04;-21.50;99.90
29341;DHT22;16337;59.536;13.468;2024-01-06T01:00:29;-21.50;99.90
29341;DHT22;16337;59.536;13.468;2024-01-06T01:02:55;-21.50;99.90
29341;DHT22;16337;59.536;13.468;2024-01-06T01:05:21;-21.50;99.90
29341;DHT22;16337;59.536;13.468;2024-01-06T01:07:46;-21.60;99.90
29341;DHT22;16337;59.536;13.468;2024-01-06T01:10:13;-21.60;99.90
29341;DHT22;16337;59.536;13.468;2024-01-06T01:12:38;-21.60;99.90
29341;DHT22;16337;59.536;13.468;2024-01-06T01:15:05;-21.50;99.90
29341;DHT22;16337;59.536;13.468;2024-01-06T01:17:30;-21.60;99.90
29341;DHT22;16337;59.536;13.468;2024-01-06T01:19:56;-21.50;99.90
29341;DHT22;16337;59.536;13.468;2024-01-06T01:22:22;-21.60;99.90
29341;DHT22;16337;59.536;13.468;2024-01-06T01:24:47;-21.70;99.90
29341;DHT22;16337;59.536;13.468;2024-01-06T01:27:13;-21.80;99.90
29341;DHT22;16337;59.536;13.468;2024-01-06T01:29:39;-21.90;99.90
29341;DHT22;16337;59.536;13.468;2024-01-06T01:32:05;-22.00;99.90
29341;DHT22;16337;59.536;13.468;2024-01-06T01:34:31;-22.10;99.90
29341;DHT22;16337;59.536;13.468;2024-01-06T01:36:56;-22.10;99.90
29341;DHT22;16337;59.536;13.468;2024-01-06T01:39:22;-22.10;99.90
29341;DHT22;16337;59.536;13.468;2024-01-06T01:41:48;-22.00;99.90
29341;DHT22;16337;59.536;13.468;2024-01-06T01:44:13;-22.00;99.90
29341;DHT22;16337;59.536;13.468;2024-01-06T01:46:40;-22.00;99.90
29341;DHT22;16337;59.536;13.468;2024-01-06T01:49:06;-22.00;99.90
29341;DHT22;16337;59.536;13.468;2024-01-06T01:51:34;-22.00;99.90
29341;DHT22;16337;59.536;13.468;2024-01-06T01:54:01;-22.10;99.90
29341;DHT22;16337;59.536;13.468;2024-01-06T01:56:29;-22.20;99.90
29341;DHT22;16337;59.536;13.468;2024-01-06T01:59:00;-22.30;99.90
29341;DHT22;16337;59.536;13.468;2024-01-06T02:01:26;-22.40;99.90
29341;DHT22;16337;59.536;13.468;2024-01-06T02:03:52;-22.30;99.90
29341;DHT22;16337;59.536;13.468;2024-01-06T02:06:18;-22.30;99.90
29341;DHT22;16337;59.536;13.468;2024-01-06T02:08:44;-22.30;99.90
29341;DHT22;16337;59.536;13.468;2024-01-06T02:11:09;-22.30;99.90
29341;DHT22;16337;59.536;13.468;2024-01-06T02:13:36;-22.30;99.90
29341;DHT22;16337;59.536;13.468;2024-01-06T02:16:03;-22.30;99.90
29341;DHT22;16337;59.536;13.468;2024-01-06T02:18:31;-22.30;99.90
29341;DHT22;16337;59.536;13.468;2024-01-06T02:21:01;-22.30;99.90
29341;DHT22;16337;59.536;13.468;2024-01-06T02:23:27;-22.30;99.90
29341;DHT22;16337;59.536;13.468;2024-01-06T02:25:53;-22.40;99.90
29341;DHT22;16337;59.536;13.468;2024-01-06T02:28:19;-22.40;99.90
29341;DHT22;16337;59.536;13.468;2024-01-06T02:30:45;-22.50;99.90
29341;DHT22;16337;59.536;13.468;2024-01-06T02:33:11;-22.50;99.90
29341;DHT22;16337;59.536;13.468;2024-01-06T02:35:36;-22.50;99.90
29341;DHT22;16337;59.536;13.468;2024-01-06T02:38:02;-22.50;99.90
29341;DHT22;16337;59.536;13.468;2024-01-06T02:40:28;-22.40;99.90
29341;DHT22;16337;59.536;13.468;2024-01-06T02:42:54;-22.50;99.90
29341;DHT22;16337;59.536;13.468;2024-01-06T02:45:34;-22.50;99.90
29341;DHT22;16337;59.536;13.468;2024-01-06T02:48:08;-22.50;99.90
29341;DHT22;16337;59.536;13.468;2024-01-06T02:50:50;-22.50;99.90
29341;DHT22;16337;59.536;13.468;2024-01-06T02:53:24;-22.50;99.90
29341;DHT22;16337;59.536;13.468;2024-01-06T02:55:51;-22.50;99.90
29341;DHT22;16337;59.536;13.468;2024-01-06T02:58:20;-22.60;99.90
29341;DHT22;16337;59.536;13.468;2024-01-06T03:00:48;-22.60;99.90
29341;DHT22;16337;59.536;13.468;2024-01-06T03:03:43;-22.50;99.90
29341;DHT22;16337;59.536;13.468;2024-01-06T03:06:17;-22.50;99.90
29341;DHT22;16337;59.536;13.468;2024-01-06T03:09:18;-22.60;99.90
29341;DHT22;16337;59.536;13.468;2024-01-06T03:12:05;-22.50;99.90
29341;DHT22;16337;59.536;13.468;2024-01-06T03:14:43;-22.50;99.90
29341;DHT22;16337;59.536;13.468;2024-01-06T03:17:09;-22.50;99.90
29341;DHT22;16337;59.536;13.468;2024-01-06T03:19:36;-22.50;99.90
29341;DHT22;16337;59.536;13.468;2024-01-06T03:22:20;-22.50;99.90
29341;DHT22;16337;59.536;13.468;2024-01-06T03:24:54;-22.50;99.90
29341;DHT22;16337;59.536;13.468;2024-01-06T03:27:44;-22.40;99.90
29341;DHT22;16337;59.536;13.468;2024-01-06T03:30:12;-22.30;99.90
29341;DHT22;16337;59.536;13.468;2024-01-06T03:32:38;-22.30;99.90
29341;DHT22;16337;59.536;13.468;2024-01-06T03:35:05;-22.30;99.90
29341;DHT22;16337;59.536;13.468;2024-01-06T03:37:34;-22.20;99.90
29341;DHT22;16337;59.536;13.468;2024-01-06T03:40:05;-22.30;99.90
29341;DHT22;16337;59.536;13.468;2024-01-06T03:42:40;-22.30;99.90
29341;DHT22;16337;59.536;13.468;2024-01-06T03:45:06;-22.30;99.90
29341;DHT22;16337;59.536;13.468;2024-01-06T03:47:37;-22.30;99.90
29341;DHT22;16337;59.536;13.468;2024-01-06T03:50:03;-22.30;99.90
29341;DHT22;16337;59.536;13.468;2024-01-06T03:52:28;-22.30;99.90
29341;DHT22;16337;59.536;13.468;2024-01-06T03:57:57;-22.20;99.90
29341;DHT22;16337;59.536;13.468;2024-01-06T04:00:27;-22.30;99.90
29341;DHT22;16337;59.536;13.468;2024-01-06T04:02:53;-22.30;99.90
29341;DHT22;16337;59.536;13.468;2024-01-06T04:05:36;-22.40;99.90
29341;DHT22;16337;59.536;13.468;2024-01-06T04:08:11;-22.50;99.90
29341;DHT22;16337;59.536;13.468;2024-01-06T04:10:42;-22.70;99.90
29341;DHT22;16337;59.536;13.468;2024-01-06T04:13:20;-22.80;99.90
29341;DHT22;16337;59.536;13.468;2024-01-06T04:15:45;-22.80;99.90
29341;DHT22;16337;59.536;13.468;2024-01-06T04:18:11;-22.80;99.90
29341;DHT22;16337;59.536;13.468;2024-01-06T04:20:37;-22.90;99.90
29341;DHT22;16337;59.536;13.468;2024-01-06T04:23:08;-22.90;99.90
29341;DHT22;16337;59.536;13.468;2024-01-06T04:25:36;-23.00;99.90
29341;DHT22;16337;59.536;13.468;2024-01-06T04:28:08;-23.00;99.90
29341;DHT22;16337;59.536;13.468;2024-01-06T04:30:33;-23.00;99.90
29341;DHT22;16337;59.536;13.468;2024-01-06T04:33:11;-23.00;99.90
29341;DHT22;16337;59.536;13.468;2024-01-06T04:35:48;-23.00;99.90
29341;DHT22;16337;59.536;13.468;2024-01-06T04:38:16;-23.00;99.90
29341;DHT22;16337;59.536;13.468;2024-01-06T04:40:44;-23.00;99.90
29341;DHT22;16337;59.536;13.468;2024-01-06T04:43:14;-22.90;99.90
29341;DHT22;16337;59.536;13.468;2024-01-06T04:45:39;-22.90;99.90
29341;DHT22;16337;59.536;13.468;2024-01-06T04:48:06;-23.00;99.90
29341;DHT22;16337;59.536;13.468;2024-01-06T04:50:31;-23.00;99.90
29341;DHT22;16337;59.536;13.468;2024-01-06T04:53:14;-23.00;99.90
29341;DHT22;16337;59.536;13.468;2024-01-06T04:55:47;-23.20;99.90
29341;DHT22;16337;59.536;13.468;2024-01-06T04:58:25;-23.20;99.90
29341;DHT22;16337;59.536;13.468;2024-01-06T05:00:53;-23.10;99.90
29341;DHT22;16337;59.536;13.468;2024-01-06T05:03:19;-23.10;99.90
29341;DHT22;16337;59.536;13.468;2024-01-06T05:05:56;-23.00;99.90
29341;DHT22;16337;59.536;13.468;2024-01-06T05:08:24;-23.00;99.90
29341;DHT22;16337;59.536;13.468;2024-01-06T05:10:53;-22.90;99.90
29341;DHT22;16337;59.536;13.468;2024-01-06T05:13:24;-22.90;99.90
29341;DHT22;16337;59.536;13.468;2024-01-06T05:15:53;-22.90;99.90
29341;DHT22;16337;59.536;13.468;2024-01-06T05:18:27;-22.90;99.90
29341;DHT22;16337;59.536;13.468;2024-01-06T05:20:58;-22.90;99.90
29341;DHT22;16337;59.536;13.468;2024-01-06T05:23:37;-22.90;99.90
29341;DHT22;16337;59.536;13.468;2024-01-06T05:26:06;-22.90;99.90
29341;DHT22;16337;59.536;13.468;2024-01-06T05:28:35;-22.90;99.90
29341;DHT22;16337;59.536;13.468;2024-01-06T05:31:06;-22.90;99.90
29341;DHT22;16337;59.536;13.468;2024-01-06T05:33:43;-22.90;99.90
29341;DHT22;16337;59.536;13.468;2024-01-06T05:36:20;-22.90;99.90
29341;DHT22;16337;59.536;13.468;2024-01-06T05:39:04;-22.90;99.90
29341;DHT22;16337;59.536;13.468;2024-01-06T05:41:29;-23.00;99.90
29341;DHT22;16337;59.536;13.468;2024-01-06T05:44:00;-23.10;99.90
29341;DHT22;16337;59.536;13.468;2024-01-06T05:46:31;-23.10;99.90
29341;DHT22;16337;59.536;13.468;2024-01-06T05:49:03;-23.10;99.90
29341;DHT22;16337;59.536;13.468;2024-01-06T05:51:35;-23.10;99.90
29341;DHT22;16337;59.536;13.468;2024-01-06T05:54:01;-23.10;99.90
29341;DHT22;16337;59.536;13.468;2024-01-06T05:56:33;-23.00;99.90
29341;DHT22;16337;59.536;13.468;2024-01-06T05:59:04;-23.10;99.90
29341;DHT22;16337;59.536;13.468;2024-01-06T06:01:33;-23.00;99.90
29341;DHT22;16337;59.536;13.468;2024-01-06T06:04:01;-23.00;99.90
29341;DHT22;16337;59.536;13.468;2024-01-06T06:06:37;-22.90;99.90
29341;DHT22;16337;59.536;13.468;2024-01-06T06:09:03;-22.90;99.90
29341;DHT22;16337;59.536;13.468;2024-01-06T06:11:40;-22.80;99.90
29341;DHT22;16337;59.536;13.468;2024-01-06T06:14:20;-22.80;99.90
29341;DHT22;16337;59.536;13.468;2024-01-06T06:16:51;-22.80;99.90
29341;DHT22;16337;59.536;13.468;2024-01-06T06:19:22;-22.80;99.90
29341;DHT22;16337;59.536;13.468;2024-01-06T06:21:59;-22.90;99.90
29341;DHT22;16337;59.536;13.468;2024-01-06T06:24:28;-22.90;99.90
29341;DHT22;16337;59.536;13.468;2024-01-06T06:26:54;-22.90;99.90
29341;DHT22;16337;59.536;13.468;2024-01-06T06:29:25;-22.90;99.90
29341;DHT22;16337;59.536;13.468;2024-01-06T06:31:50;-22.90;99.90
29341;DHT22;16337;59.536;13.468;2024-01-06T06:34:19;-22.80;99.90
29341;DHT22;16337;59.536;13.468;2024-01-06T06:36:53;-22.90;99.90
29341;DHT22;16337;59.536;13.468;2024-01-06T06:39:19;-22.90;99.90
29341;DHT22;16337;59.536;13.468;2024-01-06T06:41:45;-22.90;99.90
29341;DHT22;16337;59.536;13.468;2024-01-06T06:44:11;-22.90;99.90
29341;DHT22;16337;59.536;13.468;2024-01-06T06:49:39;-22.90;99.90
29341;DHT22;16337;59.536;13.468;2024-01-06T06:52:11;-22.90;99.90
29341;DHT22;16337;59.536;13.468;2024-01-06T06:54:37;-23.00;99.90
29341;DHT22;16337;59.536;13.468;2024-01-06T06:57:03;-23.00;99.90
29341;DHT22;16337;59.536;13.468;2024-01-06T06:59:31;-23.00;99.90
29341;DHT22;16337;59.536;13.468;2024-01-06T07:02:00;-23.00;99.90
29341;DHT22;16337;59.536;13.468;2024-01-06T07:04:29;-23.00;99.90
29341;DHT22;16337;59.536;13.468;2024-01-06T07:07:00;-23.00;99.90
29341;DHT22;16337;59.536;13.468;2024-01-06T07:09:36;-23.00;99.90
29341;DHT22;16337;59.536;13.468;2024-01-06T07:12:30;-23.10;99.90
29341;DHT22;16337;59.536;13.468;2024-01-06T07:15:05;-23.20;99.90
29341;DHT22;16337;59.536;13.468;2024-01-06T07:17:31;-23.30;99.90
29341;DHT22;16337;59.536;13.468;2024-01-06T07:19:59;-23.30;99.90
29341;DHT22;16337;59.536;13.468;2024-01-06T07:22:53;-23.20;99.90
29341;DHT22;16337;59.536;13.468;2024-01-06T07:25:39;-23.20;99.90
29341;DHT22;16337;59.536;13.468;2024-01-06T07:28:05;-23.30;99.90
29341;DHT22;16337;59.536;13.468;2024-01-06T07:30:36;-23.30;99.90
29341;DHT22;16337;59.536;13.468;2024-01-06T07:33:02;-23.30;99.90
29341;DHT22;16337;59.536;13.468;2024-01-06T07:35:28;-23.20;99.90
29341;DHT22;16337;59.536;13.468;2024-01-06T07:38:10;-23.20;99.90
29341;DHT22;16337;59.536;13.468;2024-01-06T07:40:39;-23.10;99.90
29341;DHT22;16337;59.536;13.468;2024-01-06T07:43:09;-23.00;99.90
29341;DHT22;16337;59.536;13.468;2024-01-06T07:45:35;-23.00;99.90
29341;DHT22;16337;59.536;13.468;2024-01-06T07:48:01;-22.90;99.90
29341;DHT22;16337;59.536;13.468;2024-01-06T07:50:43;-22.90;99.90
29341;DHT22;16337;59.536;13.468;2024-01-06T07:53:27;-22.90;99.90
29341;DHT22;16337;59.536;13.468;2024-01-06T07:56:07;-23.00;99.90
29341;DHT22;16337;59.536;13.468;2024-01-06T07:58:45;-23.10;99.90
29341;DHT22;16337;59.536;13.468;2024-01-06T08:01:23;-23.10;99.90
29341;DHT22;16337;59.536;13.468;2024-01-06T08:03:52;-23.20;99.90
29341;DHT22;16337;59.536;13.468;2024-01-06T08:06:35;-23.20;99.90
29341;DHT22;16337;59.536;13.468;2024-01-06T08:09:01;-23.20;99.90
29341;DHT22;16337;59.536;13.468;2024-01-06T08:11:29;-23.10;99.90
29341;DHT22;16337;59.536;13.468;2024-01-06T08:14:07;-23.10;99.90
29341;DHT22;16337;59.536;13.468;2024-01-06T08:16:48;-23.10;99.90
29341;DHT22;16337;59.536;13.468;2024-01-06T08:19:14;-23.00;99.90
29341;DHT22;16337;59.536;13.468;2024-01-06T08:21:40;-22.90;99.90
29341;DHT22;16337;59.536;13.468;2024-01-06T08:24:05;-22.90;99.90
29341;DHT22;16337;59.536;13.468;2024-01-06T08:26:34;-22.80;99.90
29341;DHT22;16337;59.536;13.468;2024-01-06T08:29:05;-22.80;99.90
29341;DHT22;16337;59.536;13.468;2024-01-06T08:31:39;-22.70;99.90
29341;DHT22;16337;59.536;13.468;2024-01-06T08:34:10;-22.70;99.90
29341;DHT22;16337;59.536;13.468;2024-01-06T08:36:36;-22.60;99.90
29341;DHT22;16337;59.536;13.468;2024-01-06T08:39:01;-22.60;99.90
29341;DHT22;16337;59.536;13.468;2024-01-06T08:41:27;-22.60;99.90
29341;DHT22;16337;59.536;13.468;2024-01-06T08:43:56;-22.60;99.90
29341;DHT22;16337;59.536;13.468;2024-01-06T08:46:25;-22.50;99.90
29341;DHT22;16337;59.536;13.468;2024-01-06T08:48:53;-22.50;99.90
29341;DHT22;16337;59.536;13.468;2024-01-06T08:51:28;-22.50;99.90
29341;DHT22;16337;59.536;13.468;2024-01-06T08:53:58;-22.50;99.90
29341;DHT22;16337;59.536;13.468;2024-01-06T08:56:24;-22.50;99.90
29341;DHT22;16337;59.536;13.468;2024-01-06T08:58:49;-22.40;99.90
29341;DHT22;16337;59.536;13.468;2024-01-06T09:01:15;-22.40;99.90
29341;DHT22;16337;59.536;13.468;2024-01-06T09:03:46;-22.30;99.90
29341;DHT22;16337;59.536;13.468;2024-01-06T09:06:16;-22.30;99.90
29341;DHT22;16337;59.536;13.468;2024-01-06T09:08:50;-22.20;99.90
29341;DHT22;16337;59.536;13.468;2024-01-06T09:11:22;-22.20;99.90
29341;DHT22;16337;59.536;13.468;2024-01-06T09:13:56;-22.10;99.90
29341;DHT22;16337;59.536;13.468;2024-01-06T09:16:22;-22.10;99.90
29341;DHT22;16337;59.536;13.468;2024-01-06T09:18:56;-22.00;99.90
29341;DHT22;16337;59.536;13.468;2024-01-06T09:21:23;-22.10;99.90
29341;DHT22;16337;59.536;13.468;2024-01-06T09:23:51;-22.10;99.90
29341;DHT22;16337;59.536;13.468;2024-01-06T09:26:17;-22.00;99.90
29341;DHT22;16337;59.536;13.468;2024-01-06T09:28:50;-22.00;99.90
29341;DHT22;16337;59.536;13.468;2024-01-06T09:31:29;-21.90;99.90
29341;DHT22;16337;59.536;13.468;2024-01-06T09:34:03;-21.80;99.90
29341;DHT22;16337;59.536;13.468;2024-01-06T09:36:31;-21.80;99.90
29341;DHT22;16337;59.536;13.468;2024-01-06T09:39:08;-21.70;99.90
29341;DHT22;16337;59.536;13.468;2024-01-06T09:41:34;-21.70;99.90
29341;DHT22;16337;59.536;13.468;2024-01-06T09:44:09;-21.60;99.90
29341;DHT22;16337;59.536;13.468;2024-01-06T09:46:53;-21.60;99.90
29341;DHT22;16337;59.536;13.468;2024-01-06T09:49:38;-21.50;99.90
29341;DHT22;16337;59.536;13.468;2024-01-06T09:52:13;-21.50;99.90
29341;DHT22;16337;59.536;13.468;2024-01-06T09:54:54;-21.50;99.90
29341;DHT22;16337;59.536;13.468;2024-01-06T09:57:34;-21.50;99.90
29341;DHT22;16337;59.536;13.468;2024-01-06T10:00:02;-21.50;99.90
29341;DHT22;16337;59.536;13.468;2024-01-06T10:02:29;-21.40;99.90
29341;DHT22;16337;59.536;13.468;2024-01-06T10:04:57;-21.40;99.90
29341;DHT22;16337;59.536;13.468;2024-01-06T10:07:25;-21.30;99.90
29341;DHT22;16337;59.536;13.468;2024-01-06T10:10:17;-21.20;99.90
29341;DHT22;16337;59.536;13.468;2024-01-06T10:12:55;-21.00;99.90
29341;DHT22;16337;59.536;13.468;2024-01-06T10:15:24;-21.00;99.90
29341;DHT22;16337;59.536;13.468;2024-01-06T10:17:49;-20.90;99.90
29341;DHT22;16337;59.536;13.468;2024-01-06T10:20:35;-20.90;99.90
29341;DHT22;16337;59.536;13.468;2024-01-06T10:23:25;-20.80;99.90
29341;DHT22;16337;59.536;13.468;2024-01-06T10:25:58;-20.80;99.90
29341;DHT22;16337;59.536;13.468;2024-01-06T10:28:30;-20.70;99.90
29341;DHT22;16337;59.536;13.468;2024-01-06T10:30:58;-20.70;99.90
29341;DHT22;16337;59.536;13.468;2024-01-06T10:33:37;-20.50;99.90
29341;DHT22;16337;59.536;13.468;2024-01-06T10:36:05;-20.50;99.90
29341;DHT22;16337;59.536;13.468;2024-01-06T10:38:34;-20.50;99.90
29341;DHT22;16337;59.536;13.468;2024-01-06T10:41:15;-20.40;99.90
29341;DHT22;16337;59.536;13.468;2024-01-06T10:43:57;-20.30;99.90
29341;DHT22;16337;59.536;13.468;2024-01-06T10:46:30;-20.20;99.90
29341;DHT22;16337;59.536;13.468;2024-01-06T10:48:57;-20.20;99.90
29341;DHT22;16337;59.536;13.468;2024-01-06T10:51:25;-20.10;99.90
29341;DHT22;16337;59.536;13.468;2024-01-06T10:53:51;-20.10;99.90
29341;DHT22;16337;59.536;13.468;2024-01-06T10:56:21;-20.10;99.90
29341;DHT22;16337;59.536;13.468;2024-01-06T10:59:01;-20.20;99.90
29341;DHT22;16337;59.536;13.468;2024-01-06T11:01:39;-20.20;99.90
29341;DHT22;16337;59.536;13.468;2024-01-06T11:04:14;-20.20;99.90
29341;DHT22;16337;59.536;13.468;2024-01-06T11:06:56;-20.30;99.90
29341;DHT22;16337;59.536;13.468;2024-01-06T11:09:31;-20.20;99.90
29341;DHT22;16337;59.536;13.468;2024-01-06T11:12:13;-20.20;99.90
29341;DHT22;16337;59.536;13.468;2024-01-06T11:14:59;-20.20;99.90
29341;DHT22;16337;59.536;13.468;2024-01-06T11:17:56;-20.10;99.90
29341;DHT22;16337;59.536;13.468;2024-01-06T11:20:26;-20.10;99.90
29341;DHT22;16337;59.536;13.468;2024-01-06T11:23:24;-20.20;99.90
29341;DHT22;16337;59.536;13.468;2024-01-06T11:25:55;-20.20;99.90
29341;DHT22;16337;59.536;13.468;2024-01-06T11:28:24;-20.10;99.90
29341;DHT22;16337;59.536;13.468;2024-01-06T11:31:07;-20.10;99.90
29341;DHT22;16337;59.536;13.468;2024-01-06T11:33:53;-20.10;99.90
29341;DHT22;16337;59.536;13.468;2024-01-06T11:36:34;-20.10;99.90
29341;DHT22;16337;59.536;13.468;2024-01-06T11:39:01;-20.10;99.90
29341;DHT22;16337;59.536;13.468;2024-01-06T11:41:49;-20.10;99.90
29341;DHT22;16337;59.536;13.468;2024-01-06T11:44:24;-20.10;99.90
29341;DHT22;16337;59.536;13.468;2024-01-06T11:47:03;-20.10;99.90
29341;DHT22;16337;59.536;13.468;2024-01-06T11:49:32;-20.10;99.90
29341;DHT22;16337;59.536;13.468;2024-01-06T11:51:58;-20.00;99.90
29341;DHT22;16337;59.536;13.468;2024-01-06T11:54:27;-20.00;99.90
29341;DHT22;16337;59.536;13.468;2024-01-06T11:56:52;-19.90;99.90
29341;DHT22;16337;59.536;13.468;2024-01-06T11:59:19;-19.90;99.90
29341;DHT22;16337;59.536;13.468;2024-01-06T12:01:50;-19.90;99.90
29341;DHT22;16337;59.536;13.468;2024-01-06T12:04:20;-19.90;99.90
29341;DHT22;16337;59.536;13.468;2024-01-06T12:07:09;-19.90;99.90
29341;DHT22;16337;59.536;13.468;2024-01-06T12:09:43;-19.80;99.90
29341;DHT22;16337;59.536;13.468;2024-01-06T12:12:15;-19.80;99.90
29341;DHT22;16337;59.536;13.468;2024-01-06T12:14:45;-19.70;99.90
29341;DHT22;16337;59.536;13.468;2024-01-06T12:17:14;-19.70;99.90
29341;DHT22;16337;59.536;13.468;2024-01-06T12:19:42;-19.60;99.90
29341;DHT22;16337;59.536;13.468;2024-01-06T12:22:29;-19.60;99.90
29341;DHT22;16337;59.536;13.468;2024-01-06T12:25:00;-19.60;99.90
29341;DHT22;16337;59.536;13.468;2024-01-06T12:27:41;-19.60;99.90
29341;DHT22;16337;59.536;13.468;2024-01-06T12:30:21;-19.50;99.90
29341;DHT22;16337;59.536;13.468;2024-01-06T12:32:51;-19.50;99.90
29341;DHT22;16337;59.536;13.468;2024-01-06T12:35:20;-19.50;99.90
29341;DHT22;16337;59.536;13.468;2024-01-06T12:37:57;-19.50;99.90
29341;DHT22;16337;59.536;13.468;2024-01-06T12:40:23;-19.50;99.90
29341;DHT22;16337;59.536;13.468;2024-01-06T12:42:48;-19.40;99.90
29341;DHT22;16337;59.536;13.468;2024-01-06T12:45:17;-19.40;99.90
29341;DHT22;16337;59.536;13.468;2024-01-06T12:47:51;-19.40;99.90
29341;DHT22;16337;59.536;13.468;2024-01-06T12:50:36;-19.40;99.90
29341;DHT22;16337;59.536;13.468;2024-01-06T12:53:02;-19.40;99.90
29341;DHT22;16337;59.536;13.468;2024-01-06T12:55:44;-19.40;99.90
29341;DHT22;16337;59.536;13.468;2024-01-06T12:58:20;-19.50;99.90
29341;DHT22;16337;59.536;13.468;2024-01-06T13:00:55;-19.50;99.90
29341;DHT22;16337;59.536;13.468;2024-01-06T13:03:32;-19.50;99.90
29341;DHT22;16337;59.536;13.468;2024-01-06T13:06:10;-19.50;99.90
29341;DHT22;16337;59.536;13.468;2024-01-06T13:08:35;-19.50;99.90
29341;DHT22;16337;59.536;13.468;2024-01-06T13:11:01;-19.50;99.90
29341;DHT22;16337;59.536;13.468;2024-01-06T13:13:41;-19.50;99.90
29341;DHT22;16337;59.536;13.468;2024-01-06T13:16:09;-19.50;99.90
29341;DHT22;16337;59.536;13.468;2024-01-06T13:18:38;-19.50;99.90
29341;DHT22;16337;59.536;13.468;2024-01-06T13:21:06;-19.60;99.90
29341;DHT22;16337;59.536;13.468;2024-01-06T13:23:32;-19.60;99.90
29341;DHT22;16337;59.536;13.468;2024-01-06T13:26:00;-19.60;99.90
29341;DHT22;16337;59.536;13.468;2024-01-06T13:28:29;-19.60;99.90
29341;DHT22;16337;59.536;13.468;2024-01-06T13:31:02;-19.60;99.90
29341;DHT22;16337;59.536;13.468;2024-01-06T13:33:28;-19.50;99.90
29341;DHT22;16337;59.536;13.468;2024-01-06T13:35:57;-19.50;99.90
29341;DHT22;16337;59.536;13.468;2024-01-06T13:38:23;-19.50;99.90
29341;DHT22;16337;59.536;13.468;2024-01-06T13:40:49;-19.50;99.90
29341;DHT22;16337;59.536;13.468;2024-01-06T13:43:14;-19.50;99.90
29341;DHT22;16337;59.536;13.468;2024-01-06T13:46:17;-19.50;99.90
29341;DHT22;16337;59.536;13.468;2024-01-06T13:48:43;-19.40;99.90
29341;DHT22;16337;59.536;13.468;2024-01-06T13:51:15;-19.40;99.90
29341;DHT22;16337;59.536;13.468;2024-01-06T13:53:43;-19.40;99.90
29341;DHT22;16337;59.536;13.468;2024-01-06T13:56:12;-19.50;99.90
29341;DHT22;16337;59.536;13.468;2024-01-06T13:58:41;-19.50;99.90
29341;DHT22;16337;59.536;13.468;2024-01-06T14:01:21;-19.50;99.90
29341;DHT22;16337;59.536;13.468;2024-01-06T14:03:58;-19.50;99.90
29341;DHT22;16337;59.536;13.468;2024-01-06T14:06:48;-19.50;99.90
29341;DHT22;16337;59.536;13.468;2024-01-06T14:09:46;-19.50;99.90
29341;DHT22;16337;59.536;13.468;2024-01-06T14:12:12;-19.60;99.90
29341;DHT22;16337;59.536;13.468;2024-01-06T14:14:49;-19.60;99.90
29341;DHT22;16337;59.536;13.468;2024-01-06T14:17:18;-19.60;99.90
29341;DHT22;16337;59.536;13.468;2024-01-06T14:19:43;-19.60;99.90
29341;DHT22;16337;59.536;13.468;2024-01-06T14:22:09;-19.60;99.90
29341;DHT22;16337;59.536;13.468;2024-01-06T14:24:38;-19.70;99.90
29341;DHT22;16337;59.536;13.468;2024-01-06T14:27:09;-19.70;99.90
29341;DHT22;16337;59.536;13.468;2024-01-06T14:29:45;-19.70;99.90
29341;DHT22;16337;59.536;13.468;2024-01-06T14:32:22;-19.70;99.90
29341;DHT22;16337;59.536;13.468;2024-01-06T14:34:50;-19.70;99.90
29341;DHT22;16337;59.536;13.468;2024-01-06T14:37:21;-19.70;99.90
29341;DHT22;16337;59.536;13.468;2024-01-06T14:39:47;-19.70;99.90
29341;DHT22;16337;59.536;13.468;2024-01-06T14:42:13;-19.80;99.90
29341;DHT22;16337;59.536;13.468;2024-01-06T14:44:42;-19.80;99.90
29341;DHT22;16337;59.536;13.468;2024-01-06T14:47:17;-19.80;99.90
29341;DHT22;16337;59.536;13.468;2024-01-06T14:49:43;-19.90;99.90
29341;DHT22;16337;59.536;13.468;2024-01-06T14:52:09;-19.90;99.90
29341;DHT22;16337;59.536;13.468;2024-01-06T14:54:35;-20.00;99.90
29341;DHT22;16337;59.536;13.468;2024-01-06T14:57:01;-20.00;99.90
29341;DHT22;16337;59.536;13.468;2024-01-06T14:59:26;-20.00;99.90
29341;DHT22;16337;59.536;13.468;2024-01-06T15:01:52;-20.00;99.90
29341;DHT22;16337;59.536;13.468;2024-01-06T15:04:18;-19.90;99.90
29341;DHT22;16337;59.536;13.468;2024-01-06T15:06:46;-19.90;99.90
29341;DHT22;16337;59.536;13.468;2024-01-06T15:09:12;-19.90;99.90
29341;DHT22;16337;59.536;13.468;2024-01-06T15:11:38;-19.90;99.90
29341;DHT22;16337;59.536;13.468;2024-01-06T15:14:04;-19.90;99.90
29341;DHT22;16337;59.536;13.468;2024-01-06T15:16:31;-19.90;99.90
29341;DHT22;16337;59.536;13.468;2024-01-06T15:18:56;-19.90;99.90
29341;DHT22;16337;59.536;13.468;2024-01-06T15:21:24;-20.00;99.90
29341;DHT22;16337;59.536;13.468;2024-01-06T15:23:52;-20.00;99.90
29341;DHT22;16337;59.536;13.468;2024-01-06T15:26:25;-20.00;99.90
29341;DHT22;16337;59.536;13.468;2024-01-06T15:28:51;-20.00;99.90
29341;DHT22;16337;59.536;13.468;2024-01-06T15:31:17;-20.00;99.90
29341;DHT22;16337;59.536;13.468;2024-01-06T15:33:42;-20.10;99.90